Latest Weather Observations for Wellcamp Airport

IDQ60801

Issued at 9:12 pm EST Wednesday 19 September 2018 (issued every 10 minutes, with the page automatically refreshed every 10 minutes)

About weather observations | Map of weather stations | Latest weather observations for QLD | Other Formats
Station Details ID: 541150 Name: WELLCAMP AIRPORT Lat: -27.55 Lon: 151.78 Height: 436.98 m
Data from the previous 72 hours. | See also: Recent months for locations in Queensland
Date/Time
EST
Temp
°C
App
Temp
°C
Dew
Point
°C
Rel
Hum
%
Delta-T
°C
Wind Press
QNH
hPa
Press
MSL
hPa
Rain since
9am
mm
Dir  Spd
km/h
Gust
km/h
Spd
kts
Gust
kts
19/09:00pm 21.3 20.3 10.2 49 6.2 E 6 11 3 6 1013.9 1013.0 0.0
19/08:30pm 19.4 18.0 5.5 40 7.0 NW 2 6 1 3 1014.0 1013.1 0.0
19/08:00pm 19.4 18.1 5.8 41 6.9 NW 2 4 1 2 1013.4 1012.5 0.0
19/07:30pm 20.7 18.5 5.5 37 7.7 N 6 6 3 3 1013.3 1012.4 0.0
19/07:00pm 21.2 19.0 5.1 35 8.1 NNE 6 11 3 6 1013.2 1012.3 0.0
19/06:30pm 21.9 19.6 5.8 35 8.3 NNW 7 11 4 6 1013.1 1012.2 0.0
19/06:00pm 23.3 20.3 6.1 33 9.0 NW 11 13 6 7 1012.8 1011.9 0.0
19/05:30pm 25.8 22.2 6.9 30 10.1 NW 15 20 8 11 1012.4 1011.6 0.0
19/05:00pm 27.8 23.3 7.1 27 11.3 NW 20 30 11 16 1012.4 1011.6 0.0
19/04:30pm 27.8 23.5 7.1 27 11.2 NW 19 30 10 16 1012.3 1011.4 0.0
19/04:00pm 28.4 23.4 6.5 25 11.8 WNW 22 32 12 17 1012.1 1011.2 0.0
19/03:30pm 29.3 25.2 6.0 23 12.5 NW 17 41 9 22 1012.1 1011.2 0.0
19/03:00pm 28.1 22.5 5.6 24 11.9 NW 24 39 13 21 1012.1 1011.2 0.0
19/02:30pm 28.7 25.5 8.4 28 11.3 NNW 15 32 8 17 1012.2 1011.3 0.0
19/02:00pm 28.5 25.2 8.2 28 11.3 NNW 15 33 8 18 1012.9 1012.0 0.0
19/01:30pm 28.7 24.7 8.4 28 11.3 NW 19 35 10 19 1013.5 1012.6 0.0
19/01:00pm 27.1 24.4 9.0 32 10.1 N 13 28 7 15 1013.8 1012.9 0.0
19/12:30pm 26.2 22.4 9.1 34 9.5 N 19 35 10 19 1014.5 1013.7 0.0
19/12:00pm 26.1 22.4 9.5 35 9.3 N 19 32 10 17 1015.3 1014.4 0.0
19/11:30am 25.1 21.5 9.8 38 8.6 N 19 33 10 18 1016.0 1015.1 0.0
19/11:00am 24.1 20.9 10.0 41 7.9 NNW 17 30 9 16 1016.8 1016.0 0.0
19/10:30am 23.2 20.4 9.9 43 7.4 N 15 22 8 12 1017.3 1016.5 0.0
19/10:00am 21.6 18.8 10.1 48 6.4 NNW 15 22 8 12 1018.1 1017.2 0.0
19/09:30am 21.1 17.4 10.3 50 6.0 N 20 28 11 15 1018.4 1017.6 0.0
19/09:00am 19.9 15.0 10.0 53 5.4 NNE 26 35 14 19 1018.3 1017.4 0.0
19/08:30am 19.4 14.5 9.9 54 5.2 NNE 26 33 14 18 1018.4 1017.6 0.0
19/08:00am 18.2 12.9 9.8 58 4.5 NNE 28 37 15 20 1018.3 1017.4 0.0
19/07:30am 16.8 11.5 9.7 63 3.8 NNE 28 35 15 19 1018.3 1017.4 0.0
19/07:00am 15.3 12.1 9.9 70 2.9 NNE 17 22 9 12 1018.5 1017.7 0.0
19/06:59am 15.1 11.8 9.7 70 2.9 NNE 17 22 9 12 1018.5 1017.7 0.0
19/06:30am 10.1 9.2 7.7 85 1.2 SE 2 6 1 3 1018.4 1017.6 0.0
19/06:00am 8.3 6.8 6.9 91 0.7 NW 4 9 2 5 1018.4 1017.6 0.0
19/05:30am 8.2 7.1 6.7 90 0.7 N 2 4 1 2 1017.9 1017.0 0.0
19/05:00am 9.2 8.3 7.6 90 0.8 NW 2 4 1 2 1017.8 1016.9 0.0
19/04:30am 10.8 10.1 8.6 86 1.1 NNE 2 6 1 3 1017.4 1016.6 0.0
19/04:00am 11.0 9.3 8.2 83 1.4 ENE 7 11 4 6 1017.3 1016.5 0.0
19/03:30am 10.8 9.5 7.7 81 1.5 NE 4 7 2 4 1017.4 1016.6 0.0
19/03:00am 11.9 10.4 8.4 79 1.8 NE 6 9 3 5 1017.3 1016.5 0.0
19/02:30am 12.7 10.3 8.8 77 2.0 ENE 11 17 6 9 1017.3 1016.5 0.0
19/02:00am 13.2 9.7 8.9 75 2.2 NE 17 22 9 12 1017.4 1016.6 0.0
19/01:30am 13.3 9.8 8.8 74 2.3 NE 17 22 9 12 1017.7 1016.8 0.0
19/01:00am 13.2 10.1 8.7 74 2.3 ENE 15 26 8 14 1018.0 1017.1 0.0
19/12:30am 13.4 11.1 8.9 74 2.3 ENE 11 26 6 14 1018.4 1017.6 0.0
19/12:00am 13.1 12.0 8.4 73 2.4 ESE 4 11 2 6 1018.6 1017.8 0.0
 
Date/Time
EST
Temp
°C
App
Temp
°C
Dew
Point
°C
Rel
Hum
%
Delta-T
°C
Wind Press
QNH
hPa
Press
MSL
hPa
Rain since
9am
mm
Dir  Spd
km/h
Gust
km/h
Spd
kts
Gust
kts
18/11:30pm 13.4 11.8 8.9 74 2.3 ENE 7 11 4 6 1019.1 1018.3 0.0
18/11:00pm 13.5 11.2 9.0 74 2.3 ENE 11 19 6 10 1019.3 1018.5 0.0
18/10:30pm 13.5 11.5 8.8 73 2.4 NNE 9 13 5 7 1019.2 1018.4 0.0
18/10:00pm 13.9 12.6 9.1 73 2.5 W 6 9 3 5 1019.0 1018.2 0.0
18/09:30pm 15.1 13.2 9.2 68 3.1 NE 9 19 5 10 1018.9 1018.1 0.0
18/09:00pm 15.9 12.0 9.6 66 3.3 NE 20 26 11 14 1018.7 1017.9 0.0
18/08:30pm 16.7 11.7 9.6 63 3.8 ENE 26 35 14 19 1018.3 1017.4 0.0
18/08:00pm 17.4 11.6 9.6 60 4.2 E 30 41 16 22 1018.2 1017.3 0.0
18/07:30pm 18.3 12.1 9.4 56 4.8 E 32 39 17 21 1017.9 1017.0 0.0
18/07:00pm 19.5 13.8 8.5 49 5.8 E 28 35 15 19 1017.8 1016.9 0.0
18/06:30pm 20.3 14.7 7.0 42 6.9 E 26 33 14 18 1017.4 1016.6 0.0
18/06:00pm 20.8 15.3 7.4 42 7.0 E 26 35 14 19 1017.1 1016.3 0.0
18/05:30pm 21.5 16.3 7.3 40 7.5 E 24 30 13 16 1017.0 1016.2 0.0
18/05:00pm 22.4 17.6 7.4 38 7.9 E 22 28 12 15 1016.9 1016.1 0.0
18/04:30pm 23.7 19.2 6.9 34 8.9 ENE 20 30 11 16 1016.5 1015.7 0.0
18/04:00pm 24.1 19.2 6.8 33 9.1 ENE 22 37 12 20 1016.5 1015.7 0.0
18/03:30pm 25.2 21.3 6.9 31 9.8 NE 17 28 9 15 1016.6 1015.8 0.0
18/03:00pm 23.9 20.1 5.8 31 9.4 NE 15 22 8 12 1017.1 1016.3 0.0
18/02:30pm 24.8 22.3 6.5 31 9.7 N 9 32 5 17 1017.4 1016.6 0.0
18/02:00pm 24.2 22.3 6.9 33 9.2 ENE 6 15 3 8 1018.1 1017.2 0.0
18/01:30pm 22.4 19.2 7.0 37 8.1 NNE 13 20 7 11 1018.6 1017.8 0.0
18/01:00pm 22.1 19.7 7.1 38 7.9 E 9 20 5 11 1019.3 1018.5 0.0
18/12:30pm 23.3 19.9 7.8 37 8.3 N 15 26 8 14 1020.0 1019.1 0.0
18/12:00pm 21.4 18.9 8.3 43 7.0 NE 11 26 6 14 1020.6 1019.8 0.0
18/11:30am 21.8 17.8 8.3 42 7.2 ENE 19 32 10 17 1021.1 1020.3 0.0
18/11:00am 20.7 17.1 8.4 45 6.6 ENE 17 28 9 15 1021.7 1020.9 0.0
18/10:30am 21.3 17.3 9.2 46 6.6 ENE 20 35 11 19 1022.5 1021.7 0.0
18/10:00am 20.0 16.8 9.9 52 5.5 ENE 17 33 9 18 1022.8 1022.0 0.0
18/09:30am 19.0 15.2 9.8 55 5.0 ENE 20 33 11 18 1023.0 1022.2 0.0
18/09:00am 17.9 14.2 10.0 60 4.3 NE 20 28 11 15 1023.3 1022.5 0.0
18/08:30am 17.4 13.3 10.1 62 4.0 ENE 22 32 12 17 1023.4 1022.6 0.0
18/08:00am 15.7 11.1 9.6 67 3.2 NE 24 32 13 17 1023.3 1022.5 0.0
18/07:30am 14.7 11.0 9.3 70 2.8 ENE 19 24 10 13 1023.1 1022.3 0.0
18/07:00am 13.5 11.1 8.8 73 2.4 ENE 11 17 6 9 1022.9 1022.1 0.0
18/06:30am 12.0 9.5 8.3 78 1.9 NE 11 19 6 10 1022.7 1021.9 0.0
18/06:00am 11.0 8.3 7.5 79 1.7 NE 11 15 6 8 1022.4 1021.6 0.0
18/05:30am 11.0 8.7 7.5 79 1.7 ENE 9 15 5 8 1022.0 1021.2 0.0
18/05:00am 11.2 8.1 7.3 77 1.9 ENE 13 20 7 11 1021.6 1020.8 0.0
18/04:30am 10.3 8.6 7.4 82 1.4 W 6 11 3 6 1021.3 1020.5 0.0
18/04:00am 12.1 7.8 8.0 76 2.1 ENE 20 32 11 17 1021.0 1020.2 0.0
18/03:30am 12.1 8.0 7.8 75 2.2 ENE 19 28 10 15 1021.0 1020.2 0.0
18/03:00am 12.1 7.7 7.4 73 2.3 ENE 20 30 11 16 1021.1 1020.3 0.0
18/02:30am 12.4 6.9 7.5 72 2.4 E 26 41 14 22 1021.0 1020.2 0.0
18/02:00am 12.7 5.5 7.6 71 2.5 E 35 48 19 26 1020.7 1019.9 0.0
18/01:30am 12.7 5.4 7.2 69 2.7 E 35 48 19 26 1020.7 1019.9 0.0
18/01:00am 12.9 4.8 7.1 68 2.9 E 39 48 21 26 1020.8 1020.0 0.0
18/12:30am 13.2 5.1 6.8 65 3.2 E 39 52 21 28 1020.9 1020.1 0.0
18/12:00am 13.2 4.5 5.9 61 3.5 E 41 61 22 33 1021.0 1020.2 0.0
 
Date/Time
EST
Temp
°C
App
Temp
°C
Dew
Point
°C
Rel
Hum
%
Delta-T
°C
Wind Press
QNH
hPa
Press
MSL
hPa
Rain since
9am
mm
Dir  Spd
km/h
Gust
km/h
Spd
kts
Gust
kts
17/11:32pm 13.3 4.7 6.4 63 3.4 E 41 59 22 32 1020.8 1020.0 0.0
17/11:30pm 13.3 4.3 6.6 64 3.3 E 43 59 23 32 1020.9 1020.1 0.0
17/11:00pm 13.1 4.9 8.0 71 2.6 E 41 56 22 30 1021.0 1020.2 0.0
17/10:30pm 13.2 4.8 7.4 68 2.9 E 41 54 22 29 1021.1 1020.3 0.0
17/10:00pm 13.5 5.5 7.3 66 3.1 E 39 52 21 28 1020.8 1020.0 0.0
17/09:30pm 13.8 5.5 7.6 66 3.1 E 41 57 22 31 1020.9 1020.1 0.0
17/09:00pm 14.2 5.5 7.7 65 3.3 E 43 61 23 33 1020.9 1020.1 0.0
17/08:54pm 14.3 5.6 7.8 65 3.3 E 43 61 23 33 1020.8 1020.0 0.0
17/08:30pm 14.9 6.5 7.2 60 3.9 E 41 56 22 30 1020.6 1019.8 0.0
17/08:00pm 15.6 8.2 6.6 55 4.5 E 35 46 19 25 1020.6 1019.8 0.0
17/07:30pm 16.4 9.4 6.8 53 4.8 E 33 43 18 23 1020.6 1019.8 0.0
17/07:00pm 17.6 11.9 6.8 49 5.5 E 26 37 14 20 1020.3 1019.4 0.0
17/06:30pm 18.1 13.1 6.3 46 6.0 E 22 28 12 15 1019.8 1019.0 0.0
17/06:00pm 19.5 14.5 4.8 38 7.3 E 20 26 11 14 1019.5 1018.7 0.0
17/05:30pm 20.3 15.0 4.8 36 7.7 E 22 28 12 15 1019.3 1018.5 0.0
17/05:00pm 21.0 16.0 4.6 34 8.2 E 20 32 11 17 1019.1 1018.3 0.0
17/04:30pm 21.6 17.9 4.7 33 8.5 E 13 19 7 10 1018.7 1017.9 0.0
17/04:00pm 21.7 17.3 4.7 33 8.5 ESE 17 30 9 16 1018.7 1017.9 0.0
17/03:30pm 22.5 18.5 5.0 32 8.9 ENE 15 28 8 15 1018.6 1017.8 0.0
17/03:00pm 22.7 19.0 4.7 31 9.1 E 13 26 7 14 1018.7 1017.9 0.0
17/02:30pm 22.5 19.7 5.0 32 8.9 ENE 9 20 5 11 1018.7 1017.9 0.0
17/02:00pm 22.3 18.2 4.4 31 8.9 E 15 30 8 16 1018.9 1018.1 0.0
17/01:30pm 21.6 18.0 5.1 34 8.3 NE 13 28 7 15 1019.3 1018.5 0.0
17/01:00pm 21.5 17.6 5.4 35 8.2 E 15 32 8 17 1019.6 1018.8 0.0
17/12:30pm 20.9 16.9 4.9 35 8.0 E 15 26 8 14 1020.0 1019.1 0.0
17/12:00pm 20.9 17.0 5.3 36 7.9 ENE 15 30 8 16 1020.6 1019.8 0.0
17/11:30am 20.0 15.7 5.3 38 7.4 ENE 17 26 9 14 1020.9 1020.1 0.0
17/11:00am 19.4 14.6 5.5 40 7.0 ENE 20 33 11 18 1021.1 1020.3 0.0
17/10:30am 18.4 12.0 5.3 42 6.5 E 28 39 15 21 1021.4 1020.6 0.0
17/10:00am 17.7 10.9 5.3 44 6.1 E 30 39 16 21 1021.5 1020.7 0.0
17/09:30am 17.7 10.6 5.6 45 6.0 E 32 41 17 22 1021.8 1021.0 0.0
17/09:00am 16.9 11.3 5.5 47 5.6 ESE 24 35 13 19 1021.9 1021.1 0.0
17/08:30am 15.8 10.2 5.4 50 5.1 ESE 24 33 13 18 1021.7 1020.9 0.0
17/08:00am 14.7 11.3 5.8 55 4.3 SE 13 24 7 13 1021.4 1020.6 0.0
17/07:30am 12.2 8.9 4.7 60 3.5 S 11 17 6 9 1021.2 1020.4 0.0
17/07:00am 9.7 6.5 3.2 64 2.9 SSE 9 13 5 7 1020.8 1020.0 0.0
17/06:30am 6.7 3.2 1.0 67 2.3 SSE 9 13 5 7 1020.5 1019.7 0.0
17/06:00am 5.8 1.8 0.4 68 2.1 S 11 13 6 7 1020.3 1019.4 0.0
17/05:30am 5.5 1.8 -0.3 66 2.3 SSE 9 11 5 6 1019.8 1019.0 0.0
17/05:00am 6.0 1.9 -0.1 65 2.4 S 11 15 6 8 1019.4 1018.6 0.0
17/04:30am 5.6 0.7 -0.2 66 2.3 SSE 15 17 8 9 1019.1 1018.3 0.0
17/04:00am 5.3 0.8 -0.3 67 2.2 S 13 15 7 8 1018.8 1018.0 0.0
17/03:30am 5.8 1.2 -1.3 60 2.7 S 13 15 7 8 1018.5 1017.7 0.0
17/03:00am 5.2 0.5 -2.1 59 2.7 S 13 15 7 8 1018.4 1017.6 0.0
17/02:30am 5.3 0.2 -1.6 61 2.6 S 15 17 8 9 1018.4 1017.6 0.0
17/02:00am 3.6 -0.7 -5.3 52 3.0 S 9 11 5 6 1018.7 1017.9 0.0
17/01:30am 3.9 -0.1 -7.5 43 3.6 S 6 9 3 5 1018.8 1018.0 0.0
17/01:00am 4.8 0.2 -8.3 38 4.1 SSE 9 11 5 6 1019.1 1018.3 0.0
17/12:30am 6.1 1.9 -8.2 35 4.6 SE 7 9 4 5 1019.3 1018.5 0.0
17/12:00am 4.9 0.8 -8.5 37 4.2 SE 6 9 3 5 1019.3 1018.5 0.0
 
Date/Time
EST
Temp
°C
App
Temp
°C
Dew
Point
°C
Rel
Hum
%
Delta-T
°C
Wind Press
QNH
hPa
Press
MSL
hPa
Rain since
9am
mm
Dir  Spd
km/h
Gust
km/h
Spd
kts
Gust
kts
16/11:30pm 4.9 0.6 -8.9 36 4.3 SSE 7 11 4 6 1019.2 1018.4 0.0
16/11:00pm 5.0 0.9 -9.2 35 4.4 S 6 6 3 3 1019.4 1018.6 0.0
16/10:30pm 6.7 2.1 -8.4 33 4.9 S 9 13 5 7 1019.3 1018.5 0.0
16/10:00pm 6.8 2.5 -8.7 32 5.0 S 7 9 4 5 1019.4 1018.6 0.0
16/09:30pm 6.8 2.2 -8.3 33 4.9 SSE 9 11 5 6 1019.0 1018.2 0.0

Other Formats:

Comma delimited format used in spreadsheet applications
http://www.bom.gov.au/fwo/IDQ60801/IDQ60801.99435.axf

JavaScript Object Notation format (JSON) in row-major order
http://www.bom.gov.au/fwo/IDQ60801/IDQ60801.99435.json